createdAt,value
2022-08-05T00:02:43.844Z,27.00
2022-08-05T00:08:54.846Z,26.87
2022-08-05T00:15:54.560Z,26.88
2022-08-05T00:21:25.725Z,26.86
2022-08-05T00:27:36.343Z,26.78
2022-08-05T00:34:53.547Z,26.75
2022-08-05T00:40:05.913Z,26.66
2022-08-05T00:46:13.233Z,26.54
2022-08-05T00:52:18.135Z,26.49
2022-08-05T00:58:33.520Z,26.56
2022-08-05T01:04:37.077Z,26.47
2022-08-05T01:10:51.510Z,26.45
2022-08-05T01:17:05.281Z,26.34
2022-08-05T01:23:22.705Z,26.33
2022-08-05T01:29:34.961Z,26.32
2022-08-05T01:35:51.259Z,26.27
2022-08-05T01:41:59.055Z,26.28
2022-08-05T01:48:10.397Z,26.21
2022-08-05T01:54:18.016Z,26.19
2022-08-05T02:00:30.457Z,26.17
2022-08-05T02:06:38.361Z,26.26
2022-08-05T02:12:54.694Z,26.26
2022-08-05T02:19:02.427Z,26.21
2022-08-05T02:25:17.836Z,26.27
2022-08-05T02:31:28.411Z,26.21
2022-08-05T02:37:40.027Z,26.18
2022-08-05T02:44:06.627Z,26.16
2022-08-05T02:50:14.486Z,26.12
2022-08-05T02:56:22.564Z,26.05
2022-08-05T03:02:32.997Z,26.09
2022-08-05T03:08:37.609Z,26.04
2022-08-05T03:14:46.317Z,26.09
2022-08-05T03:20:53.146Z,26.11
2022-08-05T03:26:59.481Z,26.13
2022-08-05T03:33:06.123Z,25.93
2022-08-05T03:39:19.871Z,26.02
2022-08-05T03:45:30.098Z,26.04
2022-08-05T03:52:37.775Z,25.99
2022-08-05T03:58:29.079Z,26.14
2022-08-05T04:04:35.229Z,26.13
2022-08-05T04:10:42.878Z,26.16
2022-08-05T04:16:48.208Z,26.22
2022-08-05T04:22:51.797Z,26.15
2022-08-05T04:28:55.039Z,26.17
2022-08-05T04:35:00.115Z,26.12
2022-08-05T04:41:03.615Z,26.18
2022-08-05T04:47:10.194Z,26.30
2022-08-05T04:53:17.210Z,26.56
2022-08-05T04:59:36.681Z,26.52
2022-08-05T05:06:39.654Z,26.33
2022-08-05T05:12:08.458Z,26.25
2022-08-05T05:18:15.037Z,26.29
2022-08-05T05:24:56.310Z,26.31
2022-08-05T05:30:57.081Z,26.17
2022-08-05T05:37:00.617Z,26.19
2022-08-05T05:43:05.079Z,26.21
2022-08-05T05:49:22.793Z,26.21
2022-08-05T05:55:52.219Z,26.23
2022-08-05T06:01:57.598Z,26.30
2022-08-05T06:08:03.867Z,26.34
2022-08-05T06:14:07.657Z,26.36
2022-08-05T06:20:21.532Z,26.45
2022-08-05T06:26:26.930Z,26.43
2022-08-05T06:32:37.400Z,26.44
2022-08-05T06:38:46.924Z,26.51
2022-08-05T06:44:52.029Z,26.51
2022-08-05T06:50:57.006Z,26.51
2022-08-05T06:57:56.615Z,26.50
2022-08-05T07:03:32.545Z,26.59
2022-08-05T07:09:40.472Z,26.64
2022-08-05T07:16:25.669Z,26.70
2022-08-05T07:22:41.953Z,26.69
2022-08-05T07:28:45.821Z,26.75
2022-08-05T07:34:50.213Z,26.79
2022-08-05T07:42:09.014Z,26.78
2022-08-05T07:47:27.450Z,26.85
2022-08-05T07:53:50.253Z,26.91
2022-08-05T07:59:56.002Z,26.97
2022-08-05T08:05:59.631Z,26.98
2022-08-05T08:12:11.225Z,26.99
2022-08-05T08:18:20.891Z,26.99
2022-08-05T08:24:34.758Z,26.99
2022-08-05T08:30:49.885Z,27.00
2022-08-05T08:37:01.766Z,26.98
2022-08-05T08:45:21.000Z,26.90
2022-08-05T08:50:06.070Z,26.81
2022-08-05T08:56:05.999Z,26.78
2022-08-05T09:02:10.029Z,26.80
2022-08-05T09:08:16.768Z,26.77
2022-08-05T09:14:56.346Z,26.79
2022-08-05T09:20:47.229Z,26.83
2022-08-05T09:26:53.223Z,26.82
2022-08-05T09:33:02.979Z,26.74
2022-08-05T09:39:16.776Z,26.78
2022-08-05T09:46:06.728Z,26.76
2022-08-05T09:51:49.896Z,26.80
2022-08-05T09:57:54.738Z,26.79
2022-08-05T10:04:10.251Z,26.74
2022-08-05T10:10:17.939Z,26.79
2022-08-05T10:16:37.838Z,26.70
2022-08-05T10:22:50.748Z,26.71
2022-08-05T10:28:56.499Z,26.77
2022-08-05T10:35:01.550Z,26.77
2022-08-05T10:41:13.908Z,26.74
2022-08-05T10:47:26.093Z,26.73
2022-08-05T10:53:39.188Z,26.78
2022-08-05T11:00:03.553Z,26.69
2022-08-05T11:06:17.863Z,26.73
2022-08-05T11:12:50.852Z,26.67
2022-08-05T11:20:10.871Z,26.73
2022-08-05T11:26:09.967Z,26.60
2022-08-05T11:32:28.085Z,26.57
2022-08-05T11:38:54.862Z,26.38
2022-08-05T11:45:14.288Z,26.41
2022-08-05T11:51:44.485Z,26.36
2022-08-05T11:58:09.680Z,26.22
2022-08-05T12:04:16.724Z,26.27
2022-08-05T12:10:24.769Z,26.13
2022-08-05T12:16:30.901Z,26.26
2022-08-05T12:22:35.867Z,26.19
2022-08-05T12:28:43.339Z,26.05
2022-08-05T12:34:52.513Z,26.02
2022-08-05T12:40:59.095Z,26.03
2022-08-05T12:47:03.878Z,25.94
2022-08-05T12:53:07.490Z,25.92
2022-08-05T12:59:20.784Z,25.83
2022-08-05T13:05:37.450Z,26.04
2022-08-05T13:12:02.701Z,26.03
2022-08-05T13:18:07.806Z,26.37
2022-08-05T13:24:11.419Z,26.80
2022-08-05T13:30:32.957Z,26.63
2022-08-05T13:36:40.577Z,26.50
2022-08-05T13:42:44.091Z,26.41
2022-08-05T13:48:58.547Z,26.42
2022-08-05T13:55:07.862Z,26.39
2022-08-05T14:01:13.558Z,26.38
2022-08-05T14:07:56.309Z,26.39
2022-08-05T14:13:42.154Z,26.43
2022-08-05T14:19:56.108Z,26.77
2022-08-05T14:26:03.191Z,26.87
2022-08-05T14:32:15.962Z,26.63
2022-08-05T14:38:34.330Z,26.55
2022-08-05T14:44:39.671Z,26.48
2022-08-05T14:50:47.101Z,26.37
2022-08-05T14:56:53.732Z,26.35
2022-08-05T15:02:58.415Z,26.37
2022-08-05T15:09:04.234Z,26.51
2022-08-05T15:15:15.523Z,26.34
2022-08-05T15:21:21.071Z,26.33
2022-08-05T15:27:26.634Z,26.29
2022-08-05T15:34:04.545Z,26.30
2022-08-05T15:41:03.339Z,26.23
2022-08-05T15:46:27.970Z,26.24
2022-08-05T15:52:54.268Z,26.23
2022-08-05T15:58:56.341Z,26.20
2022-08-05T16:05:01.329Z,26.51
2022-08-05T16:11:05.204Z,26.50
2022-08-05T16:17:09.499Z,26.50
2022-08-05T16:23:14.509Z,26.60
2022-08-05T16:29:20.031Z,26.65
2022-08-05T16:35:28.260Z,26.68
2022-08-05T16:42:15.370Z,26.58
2022-08-05T16:48:03.033Z,26.49
2022-08-05T16:54:16.005Z,26.42
2022-08-05T17:00:33.979Z,26.46
2022-08-05T17:06:38.282Z,26.29
2022-08-05T17:12:50.656Z,26.17
2022-08-05T17:18:57.222Z,26.04
2022-08-05T17:25:01.051Z,25.96
2022-08-05T17:31:08.184Z,25.74
2022-08-05T17:37:39.755Z,25.94
2022-08-05T17:43:50.615Z,25.72
2022-08-05T17:50:03.778Z,25.71
2022-08-05T17:56:09.632Z,25.60
2022-08-05T18:02:13.563Z,25.65
2022-08-05T18:08:19.798Z,25.51
2022-08-05T18:14:24.515Z,25.54
2022-08-05T18:20:31.994Z,25.25
2022-08-05T18:26:35.915Z,25.32
2022-08-05T18:32:40.577Z,25.15
2022-08-05T18:38:57.429Z,25.16
2022-08-05T18:45:01.077Z,25.10
2022-08-05T18:52:03.389Z,25.09
2022-08-05T18:57:53.492Z,24.91
2022-08-05T19:04:05.609Z,24.78
2022-08-05T19:10:15.090Z,24.79
2022-08-05T19:16:28.412Z,24.72
2022-08-05T19:22:34.256Z,24.81
2022-08-05T19:28:44.856Z,24.73
2022-08-05T19:34:54.963Z,24.63
2022-08-05T19:40:59.236Z,24.72
2022-08-05T19:47:04.296Z,24.59
2022-08-05T19:53:09.358Z,24.54
2022-08-05T19:59:51.097Z,24.52
2022-08-05T20:05:50.009Z,24.55
2022-08-05T20:11:54.684Z,24.49
2022-08-05T20:18:02.087Z,24.56
2022-08-05T20:24:11.623Z,24.50
2022-08-05T20:30:15.313Z,24.54
2022-08-05T20:36:24.171Z,24.63
2022-08-05T20:42:32.079Z,24.45
2022-08-05T20:48:37.081Z,24.41
2022-08-05T20:55:15.843Z,24.38
2022-08-05T21:01:07.719Z,24.43
2022-08-05T21:07:11.406Z,24.31
2022-08-05T21:13:25.976Z,24.21
2022-08-05T21:19:47.085Z,24.32
2022-08-05T21:25:55.409Z,24.22
2022-08-05T21:31:59.028Z,24.19
2022-08-05T21:38:04.049Z,24.12
2022-08-05T21:44:07.611Z,24.13
2022-08-05T21:50:18.808Z,24.08
2022-08-05T21:56:27.033Z,24.03
2022-08-05T22:02:30.498Z,24.13
2022-08-05T22:08:33.995Z,24.08
2022-08-05T22:14:39.143Z,24.09
2022-08-05T22:20:44.170Z,24.06
2022-08-05T22:27:06.859Z,24.00
2022-08-05T22:33:16.168Z,24.05
2022-08-05T22:39:21.503Z,23.94
2022-08-05T22:45:26.407Z,23.91
2022-08-05T22:52:05.909Z,24.00
2022-08-05T22:57:55.633Z,23.94
2022-08-05T23:04:01.739Z,23.85
2022-08-05T23:10:07.910Z,23.85
2022-08-05T23:16:11.675Z,23.78
2022-08-05T23:22:14.904Z,23.62
2022-08-05T23:28:28.783Z,23.71
2022-08-05T23:34:33.202Z,23.65
2022-08-05T23:40:38.072Z,23.70
2022-08-05T23:46:43.405Z,23.55
2022-08-05T23:52:50.168Z,23.60
2022-08-05T23:58:54.262Z,23.60
